sensor_id;sensor_type;location;lat;lon;timestamp;P1;durP1;ratioP1;P2;durP2;ratioP2
8540;SDS011;4308;51.294;6.590;2024-03-06T00:00:12;39.33;;;25.00;;
8540;SDS011;4308;51.294;6.590;2024-03-06T00:02:39;42.63;;;23.90;;
8540;SDS011;4308;51.294;6.590;2024-03-06T00:05:07;38.17;;;21.70;;
8540;SDS011;4308;51.294;6.590;2024-03-06T00:07:35;43.50;;;23.13;;
8540;SDS011;4308;51.294;6.590;2024-03-06T00:10:03;40.63;;;23.73;;
8540;SDS011;4308;51.294;6.590;2024-03-06T00:12:30;45.00;;;26.67;;
8540;SDS011;4308;51.294;6.590;2024-03-06T00:14:58;36.77;;;23.27;;
8540;SDS011;4308;51.294;6.590;2024-03-06T00:17:25;43.63;;;23.43;;
8540;SDS011;4308;51.294;6.590;2024-03-06T00:19:53;43.43;;;25.03;;
8540;SDS011;4308;51.294;6.590;2024-03-06T00:22:20;44.47;;;25.83;;
8540;SDS011;4308;51.294;6.590;2024-03-06T00:24:50;48.17;;;26.27;;
8540;SDS011;4308;51.294;6.590;2024-03-06T00:27:18;38.37;;;23.43;;
8540;SDS011;4308;51.294;6.590;2024-03-06T00:29:45;45.10;;;26.33;;
8540;SDS011;4308;51.294;6.590;2024-03-06T00:32:13;52.00;;;28.23;;
8540;SDS011;4308;51.294;6.590;2024-03-06T00:34:41;56.83;;;29.80;;
8540;SDS011;4308;51.294;6.590;2024-03-06T00:37:08;43.03;;;24.77;;
8540;SDS011;4308;51.294;6.590;2024-03-06T00:39:35;39.50;;;23.97;;
8540;SDS011;4308;51.294;6.590;2024-03-06T00:42:03;61.00;;;30.80;;
8540;SDS011;4308;51.294;6.590;2024-03-06T00:44:30;61.33;;;28.63;;
8540;SDS011;4308;51.294;6.590;2024-03-06T00:46:57;42.20;;;25.23;;
8540;SDS011;4308;51.294;6.590;2024-03-06T00:49:25;58.07;;;29.83;;
8540;SDS011;4308;51.294;6.590;2024-03-06T00:51:52;50.70;;;27.30;;
8540;SDS011;4308;51.294;6.590;2024-03-06T00:54:19;48.30;;;25.73;;
8540;SDS011;4308;51.294;6.590;2024-03-06T00:56:47;36.10;;;22.43;;
8540;SDS011;4308;51.294;6.590;2024-03-06T00:59:14;45.73;;;25.47;;
8540;SDS011;4308;51.294;6.590;2024-03-06T01:01:42;62.33;;;30.30;;
8540;SDS011;4308;51.294;6.590;2024-03-06T01:04:10;47.40;;;28.43;;
8540;SDS011;4308;51.294;6.590;2024-03-06T01:06:37;45.97;;;26.83;;
8540;SDS011;4308;51.294;6.590;2024-03-06T01:09:05;65.77;;;33.37;;
8540;SDS011;4308;51.294;6.590;2024-03-06T01:11:32;40.03;;;23.73;;
8540;SDS011;4308;51.294;6.590;2024-03-06T01:13:59;64.73;;;31.43;;
8540;SDS011;4308;51.294;6.590;2024-03-06T01:16:27;53.57;;;30.07;;
8540;SDS011;4308;51.294;6.590;2024-03-06T01:18:54;55.27;;;29.20;;
8540;SDS011;4308;51.294;6.590;2024-03-06T01:21:21;70.90;;;33.50;;
8540;SDS011;4308;51.294;6.590;2024-03-06T01:23:48;70.27;;;32.47;;
8540;SDS011;4308;51.294;6.590;2024-03-06T01:26:16;76.50;;;32.90;;
8540;SDS011;4308;51.294;6.590;2024-03-06T01:28:43;82.57;;;31.43;;
8540;SDS011;4308;51.294;6.590;2024-03-06T01:31:10;134.87;;;35.70;;
8540;SDS011;4308;51.294;6.590;2024-03-06T01:33:38;134.70;;;31.97;;
8540;SDS011;4308;51.294;6.590;2024-03-06T01:36:05;100.47;;;27.90;;
8540;SDS011;4308;51.294;6.590;2024-03-06T01:38:33;130.37;;;34.67;;
8540;SDS011;4308;51.294;6.590;2024-03-06T01:41:00;157.43;;;41.30;;
8540;SDS011;4308;51.294;6.590;2024-03-06T01:43:27;41.93;;;25.73;;
8540;SDS011;4308;51.294;6.590;2024-03-06T01:45:55;51.83;;;28.17;;
8540;SDS011;4308;51.294;6.590;2024-03-06T01:48:26;52.00;;;27.50;;
8540;SDS011;4308;51.294;6.590;2024-03-06T01:50:55;44.10;;;25.60;;
8540;SDS011;4308;51.294;6.590;2024-03-06T01:53:24;45.60;;;25.77;;
8540;SDS011;4308;51.294;6.590;2024-03-06T01:55:53;53.87;;;28.20;;
8540;SDS011;4308;51.294;6.590;2024-03-06T01:58:21;44.20;;;26.57;;
8540;SDS011;4308;51.294;6.590;2024-03-06T02:00:50;42.50;;;25.47;;
8540;SDS011;4308;51.294;6.590;2024-03-06T02:03:18;40.33;;;24.07;;
8540;SDS011;4308;51.294;6.590;2024-03-06T02:05:48;37.13;;;23.03;;
8540;SDS011;4308;51.294;6.590;2024-03-06T02:08:17;40.13;;;24.73;;
8540;SDS011;4308;51.294;6.590;2024-03-06T02:10:45;47.13;;;27.30;;
8540;SDS011;4308;51.294;6.590;2024-03-06T02:13:12;50.53;;;30.37;;
8540;SDS011;4308;51.294;6.590;2024-03-06T02:15:41;46.80;;;28.37;;
8540;SDS011;4308;51.294;6.590;2024-03-06T02:18:08;35.47;;;23.90;;
8540;SDS011;4308;51.294;6.590;2024-03-06T02:20:40;39.20;;;24.50;;
8540;SDS011;4308;51.294;6.590;2024-03-06T02:23:07;47.27;;;27.40;;
8540;SDS011;4308;51.294;6.590;2024-03-06T02:25:35;46.00;;;26.77;;
8540;SDS011;4308;51.294;6.590;2024-03-06T02:28:03;40.67;;;25.93;;
8540;SDS011;4308;51.294;6.590;2024-03-06T02:30:31;32.93;;;21.93;;
8540;SDS011;4308;51.294;6.590;2024-03-06T02:32:58;32.30;;;22.40;;
8540;SDS011;4308;51.294;6.590;2024-03-06T02:35:25;47.13;;;27.67;;
8540;SDS011;4308;51.294;6.590;2024-03-06T02:37:53;40.77;;;25.27;;
8540;SDS011;4308;51.294;6.590;2024-03-06T02:40:20;32.60;;;22.70;;
8540;SDS011;4308;51.294;6.590;2024-03-06T02:42:48;35.97;;;23.37;;
8540;SDS011;4308;51.294;6.590;2024-03-06T02:45:15;51.10;;;29.10;;
8540;SDS011;4308;51.294;6.590;2024-03-06T02:47:44;41.00;;;26.10;;
8540;SDS011;4308;51.294;6.590;2024-03-06T02:50:11;40.57;;;25.03;;
8540;SDS011;4308;51.294;6.590;2024-03-06T02:52:39;38.57;;;24.47;;
8540;SDS011;4308;51.294;6.590;2024-03-06T02:55:07;37.47;;;24.47;;
8540;SDS011;4308;51.294;6.590;2024-03-06T02:57:34;41.60;;;24.73;;
8540;SDS011;4308;51.294;6.590;2024-03-06T03:00:03;33.30;;;23.30;;
8540;SDS011;4308;51.294;6.590;2024-03-06T03:02:31;35.60;;;22.07;;
8540;SDS011;4308;51.294;6.590;2024-03-06T03:04:59;34.60;;;23.13;;
8540;SDS011;4308;51.294;6.590;2024-03-06T03:07:26;36.67;;;23.43;;
8540;SDS011;4308;51.294;6.590;2024-03-06T03:09:53;36.07;;;24.30;;
8540;SDS011;4308;51.294;6.590;2024-03-06T03:12:21;53.60;;;29.97;;
8540;SDS011;4308;51.294;6.590;2024-03-06T03:14:48;52.63;;;29.30;;
8540;SDS011;4308;51.294;6.590;2024-03-06T03:17:16;49.97;;;29.37;;
8540;SDS011;4308;51.294;6.590;2024-03-06T03:19:47;52.40;;;28.03;;
8540;SDS011;4308;51.294;6.590;2024-03-06T03:22:14;40.67;;;24.83;;
8540;SDS011;4308;51.294;6.590;2024-03-06T03:24:41;39.23;;;23.90;;
8540;SDS011;4308;51.294;6.590;2024-03-06T03:27:09;50.43;;;29.63;;
8540;SDS011;4308;51.294;6.590;2024-03-06T03:29:36;42.33;;;26.00;;
8540;SDS011;4308;51.294;6.590;2024-03-06T03:32:03;39.97;;;24.23;;
8540;SDS011;4308;51.294;6.590;2024-03-06T03:34:31;54.13;;;28.80;;
8540;SDS011;4308;51.294;6.590;2024-03-06T03:37:01;47.60;;;26.43;;
8540;SDS011;4308;51.294;6.590;2024-03-06T03:39:28;43.10;;;25.33;;
8540;SDS011;4308;51.294;6.590;2024-03-06T03:41:55;40.60;;;24.33;;
8540;SDS011;4308;51.294;6.590;2024-03-06T03:44:23;39.33;;;24.70;;
8540;SDS011;4308;51.294;6.590;2024-03-06T03:46:50;44.83;;;25.43;;
8540;SDS011;4308;51.294;6.590;2024-03-06T03:49:18;59.90;;;30.90;;
8540;SDS011;4308;51.294;6.590;2024-03-06T03:51:45;40.50;;;24.63;;
8540;SDS011;4308;51.294;6.590;2024-03-06T03:54:12;43.97;;;25.93;;
8540;SDS011;4308;51.294;6.590;2024-03-06T03:56:40;42.27;;;25.20;;
8540;SDS011;4308;51.294;6.590;2024-03-06T03:59:07;38.67;;;24.07;;
8540;SDS011;4308;51.294;6.590;2024-03-06T04:01:37;47.53;;;25.53;;
8540;SDS011;4308;51.294;6.590;2024-03-06T04:04:05;54.70;;;27.90;;
8540;SDS011;4308;51.294;6.590;2024-03-06T04:06:32;47.70;;;26.77;;
8540;SDS011;4308;51.294;6.590;2024-03-06T04:08:59;50.83;;;27.57;;
8540;SDS011;4308;51.294;6.590;2024-03-06T04:11:27;55.37;;;28.80;;
8540;SDS011;4308;51.294;6.590;2024-03-06T04:13:54;57.07;;;29.23;;
8540;SDS011;4308;51.294;6.590;2024-03-06T04:16:21;52.30;;;29.17;;
8540;SDS011;4308;51.294;6.590;2024-03-06T04:18:49;73.63;;;32.20;;
8540;SDS011;4308;51.294;6.590;2024-03-06T04:21:16;63.03;;;30.70;;
8540;SDS011;4308;51.294;6.590;2024-03-06T04:23:44;57.40;;;29.60;;
8540;SDS011;4308;51.294;6.590;2024-03-06T04:26:11;55.43;;;28.80;;
8540;SDS011;4308;51.294;6.590;2024-03-06T04:28:39;55.67;;;29.90;;
8540;SDS011;4308;51.294;6.590;2024-03-06T04:31:06;71.37;;;32.90;;
8540;SDS011;4308;51.294;6.590;2024-03-06T04:33:34;69.33;;;33.83;;
8540;SDS011;4308;51.294;6.590;2024-03-06T04:36:02;62.97;;;31.47;;
8540;SDS011;4308;51.294;6.590;2024-03-06T04:38:30;65.93;;;32.77;;
8540;SDS011;4308;51.294;6.590;2024-03-06T04:40:58;69.50;;;33.43;;
8540;SDS011;4308;51.294;6.590;2024-03-06T04:43:25;71.50;;;33.07;;
8540;SDS011;4308;51.294;6.590;2024-03-06T04:45:53;69.10;;;32.70;;
8540;SDS011;4308;51.294;6.590;2024-03-06T04:48:20;70.83;;;33.17;;
8540;SDS011;4308;51.294;6.590;2024-03-06T04:50:48;69.57;;;32.90;;
8540;SDS011;4308;51.294;6.590;2024-03-06T04:53:15;87.20;;;35.87;;
8540;SDS011;4308;51.294;6.590;2024-03-06T04:55:43;63.73;;;31.63;;
8540;SDS011;4308;51.294;6.590;2024-03-06T04:58:11;86.80;;;36.50;;
8540;SDS011;4308;51.294;6.590;2024-03-06T05:00:39;66.93;;;33.03;;
8540;SDS011;4308;51.294;6.590;2024-03-06T05:03:06;77.97;;;35.50;;
8540;SDS011;4308;51.294;6.590;2024-03-06T05:05:52;69.43;;;33.57;;
8540;SDS011;4308;51.294;6.590;2024-03-06T05:08:37;52.17;;;27.23;;
8540;SDS011;4308;51.294;6.590;2024-03-06T05:11:22;78.97;;;35.43;;
8540;SDS011;4308;51.294;6.590;2024-03-06T05:14:07;85.50;;;34.83;;
8540;SDS011;4308;51.294;6.590;2024-03-06T05:16:52;53.03;;;28.17;;
8540;SDS011;4308;51.294;6.590;2024-03-06T05:19:37;50.53;;;27.67;;
8540;SDS011;4308;51.294;6.590;2024-03-06T05:22:22;47.83;;;26.20;;
8540;SDS011;4308;51.294;6.590;2024-03-06T05:25:07;62.57;;;31.30;;
8540;SDS011;4308;51.294;6.590;2024-03-06T05:27:52;58.60;;;29.77;;
8540;SDS011;4308;51.294;6.590;2024-03-06T05:30:36;61.10;;;31.43;;
8540;SDS011;4308;51.294;6.590;2024-03-06T05:33:21;68.97;;;33.07;;
8540;SDS011;4308;51.294;6.590;2024-03-06T05:36:06;72.13;;;33.73;;
8540;SDS011;4308;51.294;6.590;2024-03-06T05:38:51;64.63;;;31.50;;
8540;SDS011;4308;51.294;6.590;2024-03-06T05:41:36;67.93;;;31.43;;
8540;SDS011;4308;51.294;6.590;2024-03-06T05:44:21;61.60;;;31.33;;
8540;SDS011;4308;51.294;6.590;2024-03-06T05:47:06;82.07;;;36.30;;
8540;SDS011;4308;51.294;6.590;2024-03-06T05:49:52;77.43;;;35.27;;
8540;SDS011;4308;51.294;6.590;2024-03-06T05:52:37;57.73;;;29.97;;
8540;SDS011;4308;51.294;6.590;2024-03-06T05:55:22;63.83;;;31.33;;
8540;SDS011;4308;51.294;6.590;2024-03-06T05:58:07;66.33;;;31.90;;
8540;SDS011;4308;51.294;6.590;2024-03-06T06:00:34;73.50;;;34.37;;
8540;SDS011;4308;51.294;6.590;2024-03-06T06:03:02;47.47;;;27.03;;
8540;SDS011;4308;51.294;6.590;2024-03-06T06:05:29;62.17;;;32.63;;
8540;SDS011;4308;51.294;6.590;2024-03-06T06:07:57;67.73;;;33.17;;
8540;SDS011;4308;51.294;6.590;2024-03-06T06:10:24;80.97;;;36.53;;
8540;SDS011;4308;51.294;6.590;2024-03-06T06:12:52;65.20;;;33.43;;
8540;SDS011;4308;51.294;6.590;2024-03-06T06:15:19;63.50;;;30.80;;
8540;SDS011;4308;51.294;6.590;2024-03-06T06:17:49;60.90;;;30.63;;
8540;SDS011;4308;51.294;6.590;2024-03-06T06:20:16;79.10;;;35.13;;
8540;SDS011;4308;51.294;6.590;2024-03-06T06:22:44;51.77;;;27.20;;
8540;SDS011;4308;51.294;6.590;2024-03-06T06:25:11;64.93;;;32.37;;
8540;SDS011;4308;51.294;6.590;2024-03-06T06:27:39;78.63;;;36.20;;
8540;SDS011;4308;51.294;6.590;2024-03-06T06:30:06;55.33;;;29.80;;
8540;SDS011;4308;51.294;6.590;2024-03-06T06:32:34;46.53;;;27.00;;
8540;SDS011;4308;51.294;6.590;2024-03-06T06:35:02;48.97;;;26.07;;
8540;SDS011;4308;51.294;6.590;2024-03-06T06:37:29;48.37;;;26.73;;
8540;SDS011;4308;51.294;6.590;2024-03-06T06:39:57;52.77;;;28.63;;
8540;SDS011;4308;51.294;6.590;2024-03-06T06:42:24;40.23;;;25.60;;
8540;SDS011;4308;51.294;6.590;2024-03-06T06:44:51;78.77;;;37.30;;
8540;SDS011;4308;51.294;6.590;2024-03-06T06:47:19;57.87;;;30.13;;
8540;SDS011;4308;51.294;6.590;2024-03-06T06:49:46;48.27;;;27.53;;
8540;SDS011;4308;51.294;6.590;2024-03-06T06:52:13;60.23;;;32.97;;
8540;SDS011;4308;51.294;6.590;2024-03-06T06:54:41;50.97;;;28.67;;
8540;SDS011;4308;51.294;6.590;2024-03-06T06:57:08;62.67;;;33.33;;
8540;SDS011;4308;51.294;6.590;2024-03-06T06:59:35;59.23;;;31.00;;
8540;SDS011;4308;51.294;6.590;2024-03-06T07:02:03;68.23;;;33.23;;
8540;SDS011;4308;51.294;6.590;2024-03-06T07:04:30;67.53;;;35.40;;
8540;SDS011;4308;51.294;6.590;2024-03-06T07:06:57;66.77;;;34.67;;
8540;SDS011;4308;51.294;6.590;2024-03-06T07:09:25;57.47;;;31.67;;
8540;SDS011;4308;51.294;6.590;2024-03-06T07:11:52;59.03;;;32.77;;
8540;SDS011;4308;51.294;6.590;2024-03-06T07:14:19;57.23;;;31.17;;
8540;SDS011;4308;51.294;6.590;2024-03-06T07:16:51;59.27;;;31.70;;
8540;SDS011;4308;51.294;6.590;2024-03-06T07:19:18;50.90;;;29.20;;
8540;SDS011;4308;51.294;6.590;2024-03-06T07:21:45;63.13;;;31.83;;
8540;SDS011;4308;51.294;6.590;2024-03-06T07:24:13;66.73;;;33.53;;
8540;SDS011;4308;51.294;6.590;2024-03-06T07:26:40;53.97;;;31.23;;
8540;SDS011;4308;51.294;6.590;2024-03-06T07:29:07;59.97;;;32.03;;
8540;SDS011;4308;51.294;6.590;2024-03-06T07:31:35;56.37;;;31.87;;
8540;SDS011;4308;51.294;6.590;2024-03-06T07:34:02;63.97;;;32.70;;
8540;SDS011;4308;51.294;6.590;2024-03-06T07:36:29;78.27;;;37.77;;
8540;SDS011;4308;51.294;6.590;2024-03-06T07:38:57;62.43;;;31.97;;
8540;SDS011;4308;51.294;6.590;2024-03-06T07:41:24;66.03;;;34.57;;
8540;SDS011;4308;51.294;6.590;2024-03-06T07:43:51;56.20;;;30.03;;
8540;SDS011;4308;51.294;6.590;2024-03-06T07:46:18;48.60;;;31.17;;
8540;SDS011;4308;51.294;6.590;2024-03-06T07:48:46;55.37;;;33.17;;
8540;SDS011;4308;51.294;6.590;2024-03-06T07:51:13;59.27;;;33.53;;
8540;SDS011;4308;51.294;6.590;2024-03-06T07:53:40;56.67;;;33.17;;
8540;SDS011;4308;51.294;6.590;2024-03-06T07:56:10;53.87;;;33.00;;
8540;SDS011;4308;51.294;6.590;2024-03-06T07:58:37;56.53;;;32.37;;
8540;SDS011;4308;51.294;6.590;2024-03-06T08:01:05;51.47;;;31.17;;
8540;SDS011;4308;51.294;6.590;2024-03-06T08:03:33;45.43;;;28.47;;
8540;SDS011;4308;51.294;6.590;2024-03-06T08:06:00;46.80;;;28.97;;
8540;SDS011;4308;51.294;6.590;2024-03-06T08:08:28;42.63;;;26.57;;
8540;SDS011;4308;51.294;6.590;2024-03-06T08:10:55;39.47;;;24.37;;
8540;SDS011;4308;51.294;6.590;2024-03-06T08:13:23;34.90;;;23.60;;
8540;SDS011;4308;51.294;6.590;2024-03-06T08:15:50;37.27;;;23.90;;
8540;SDS011;4308;51.294;6.590;2024-03-06T08:18:17;34.77;;;22.33;;
8540;SDS011;4308;51.294;6.590;2024-03-06T08:20:45;30.30;;;20.80;;
8540;SDS011;4308;51.294;6.590;2024-03-06T08:23:12;33.47;;;22.30;;
8540;SDS011;4308;51.294;6.590;2024-03-06T08:25:40;30.40;;;21.50;;
8540;SDS011;4308;51.294;6.590;2024-03-06T08:28:07;29.63;;;22.00;;
8540;SDS011;4308;51.294;6.590;2024-03-06T08:30:34;29.63;;;20.37;;
8540;SDS011;4308;51.294;6.590;2024-03-06T08:33:02;19.80;;;14.33;;
8540;SDS011;4308;51.294;6.590;2024-03-06T08:35:29;17.33;;;12.23;;
8540;SDS011;4308;51.294;6.590;2024-03-06T08:37:57;14.13;;;11.80;;
8540;SDS011;4308;51.294;6.590;2024-03-06T08:40:24;15.77;;;12.60;;
8540;SDS011;4308;51.294;6.590;2024-03-06T08:42:52;14.97;;;11.40;;
8540;SDS011;4308;51.294;6.590;2024-03-06T08:45:19;17.43;;;13.30;;
8540;SDS011;4308;51.294;6.590;2024-03-06T08:47:47;14.60;;;11.47;;
8540;SDS011;4308;51.294;6.590;2024-03-06T08:50:14;13.67;;;10.23;;
8540;SDS011;4308;51.294;6.590;2024-03-06T08:52:42;11.10;;;9.10;;
8540;SDS011;4308;51.294;6.590;2024-03-06T08:55:09;13.00;;;10.23;;
8540;SDS011;4308;51.294;6.590;2024-03-06T08:57:37;13.73;;;10.27;;
8540;SDS011;4308;51.294;6.590;2024-03-06T09:00:06;13.13;;;9.53;;
8540;SDS011;4308;51.294;6.590;2024-03-06T09:02:34;14.10;;;10.50;;
8540;SDS011;4308;51.294;6.590;2024-03-06T09:05:02;14.83;;;9.97;;
8540;SDS011;4308;51.294;6.590;2024-03-06T09:07:33;12.53;;;8.93;;
8540;SDS011;4308;51.294;6.590;2024-03-06T09:10:00;12.37;;;8.70;;
8540;SDS011;4308;51.294;6.590;2024-03-06T09:12:28;11.37;;;8.07;;
8540;SDS011;4308;51.294;6.590;2024-03-06T09:14:55;11.60;;;8.47;;
8540;SDS011;4308;51.294;6.590;2024-03-06T09:17:22;11.00;;;9.07;;
8540;SDS011;4308;51.294;6.590;2024-03-06T09:19:49;11.00;;;8.27;;
8540;SDS011;4308;51.294;6.590;2024-03-06T09:22:34;10.43;;;9.00;;
8540;SDS011;4308;51.294;6.590;2024-03-06T09:25:01;14.03;;;10.73;;
8540;SDS011;4308;51.294;6.590;2024-03-06T09:27:28;13.03;;;9.93;;
8540;SDS011;4308;51.294;6.590;2024-03-06T09:29:56;14.20;;;10.53;;
8540;SDS011;4308;51.294;6.590;2024-03-06T09:32:23;14.13;;;10.90;;
8540;SDS011;4308;51.294;6.590;2024-03-06T09:34:50;13.27;;;11.03;;
8540;SDS011;4308;51.294;6.590;2024-03-06T09:37:18;14.40;;;11.90;;
8540;SDS011;4308;51.294;6.590;2024-03-06T09:39:46;17.53;;;12.40;;
8540;SDS011;4308;51.294;6.590;2024-03-06T09:42:14;15.53;;;12.80;;
8540;SDS011;4308;51.294;6.590;2024-03-06T09:44:42;16.73;;;12.83;;
8540;SDS011;4308;51.294;6.590;2024-03-06T09:47:12;16.30;;;12.50;;
8540;SDS011;4308;51.294;6.590;2024-03-06T09:49:40;18.10;;;13.23;;
8540;SDS011;4308;51.294;6.590;2024-03-06T09:52:08;18.90;;;14.93;;
8540;SDS011;4308;51.294;6.590;2024-03-06T09:54:36;20.13;;;15.57;;
8540;SDS011;4308;51.294;6.590;2024-03-06T09:57:04;22.10;;;15.27;;
8540;SDS011;4308;51.294;6.590;2024-03-06T09:59:31;23.87;;;16.40;;
8540;SDS011;4308;51.294;6.590;2024-03-06T10:02:00;21.90;;;17.23;;
8540;SDS011;4308;51.294;6.590;2024-03-06T10:04:28;22.87;;;18.63;;
8540;SDS011;4308;51.294;6.590;2024-03-06T10:06:56;21.73;;;16.80;;
8540;SDS011;4308;51.294;6.590;2024-03-06T10:09:25;22.63;;;17.90;;
8540;SDS011;4308;51.294;6.590;2024-03-06T10:11:53;25.40;;;18.30;;
8540;SDS011;4308;51.294;6.590;2024-03-06T10:14:21;23.97;;;18.30;;
8540;SDS011;4308;51.294;6.590;2024-03-06T10:16:55;23.00;;;18.80;;
8540;SDS011;4308;51.294;6.590;2024-03-06T10:19:25;23.50;;;16.93;;
8540;SDS011;4308;51.294;6.590;2024-03-06T10:21:54;24.50;;;17.97;;
8540;SDS011;4308;51.294;6.590;2024-03-06T10:24:22;25.77;;;18.93;;
8540;SDS011;4308;51.294;6.590;2024-03-06T10:26:55;30.40;;;18.70;;
8540;SDS011;4308;51.294;6.590;2024-03-06T10:29:23;28.07;;;18.63;;
8540;SDS011;4308;51.294;6.590;2024-03-06T10:31:52;28.13;;;19.23;;
8540;SDS011;4308;51.294;6.590;2024-03-06T10:34:25;30.33;;;20.07;;
8540;SDS011;4308;51.294;6.590;2024-03-06T10:36:54;30.43;;;20.67;;
8540;SDS011;4308;51.294;6.590;2024-03-06T10:39:23;29.90;;;22.13;;
8540;SDS011;4308;51.294;6.590;2024-03-06T10:41:54;29.67;;;20.10;;
8540;SDS011;4308;51.294;6.590;2024-03-06T10:44:23;33.00;;;21.33;;
8540;SDS011;4308;51.294;6.590;2024-03-06T10:46:56;32.23;;;23.10;;
8540;SDS011;4308;51.294;6.590;2024-03-06T10:49:26;37.17;;;23.20;;
8540;SDS011;4308;51.294;6.590;2024-03-06T10:52:12;31.77;;;23.13;;
8540;SDS011;4308;51.294;6.590;2024-03-06T10:54:40;33.50;;;25.43;;
8540;SDS011;4308;51.294;6.590;2024-03-06T10:57:08;32.67;;;24.53;;
8540;SDS011;4308;51.294;6.590;2024-03-06T10:59:36;34.20;;;25.37;;
8540;SDS011;4308;51.294;6.590;2024-03-06T11:02:04;33.80;;;24.70;;
8540;SDS011;4308;51.294;6.590;2024-03-06T11:04:32;33.40;;;25.47;;
8540;SDS011;4308;51.294;6.590;2024-03-06T11:06:59;36.00;;;25.17;;
8540;SDS011;4308;51.294;6.590;2024-03-06T11:09:34;33.50;;;25.77;;
8540;SDS011;4308;51.294;6.590;2024-03-06T11:12:04;34.57;;;25.27;;
8540;SDS011;4308;51.294;6.590;2024-03-06T11:14:32;34.83;;;25.33;;
8540;SDS011;4308;51.294;6.590;2024-03-06T11:17:06;34.13;;;23.83;;
8540;SDS011;4308;51.294;6.590;2024-03-06T11:28:17;34.03;;;24.93;;
8540;SDS011;4308;51.294;6.590;2024-03-06T11:33:21;31.10;;;23.20;;
8540;SDS011;4308;51.294;6.590;2024-03-06T11:36:33;33.77;;;22.93;;
8540;SDS011;4308;51.294;6.590;2024-03-06T11:38:41;33.33;;;21.87;;
8540;SDS011;4308;51.294;6.590;2024-03-06T11:41:09;31.13;;;21.90;;
8540;SDS011;4308;51.294;6.590;2024-03-06T11:43:43;30.17;;;21.47;;
8540;SDS011;4308;51.294;6.590;2024-03-06T11:46:11;29.63;;;21.93;;
8540;SDS011;4308;51.294;6.590;2024-03-06T11:48:38;30.03;;;22.10;;
8540;SDS011;4308;51.294;6.590;2024-03-06T11:51:05;27.17;;;21.13;;
8540;SDS011;4308;51.294;6.590;2024-03-06T11:53:33;29.37;;;20.57;;
8540;SDS011;4308;51.294;6.590;2024-03-06T11:56:01;29.93;;;21.00;;
8540;SDS011;4308;51.294;6.590;2024-03-06T11:58:28;32.40;;;23.03;;
8540;SDS011;4308;51.294;6.590;2024-03-06T12:00:56;34.77;;;23.23;;
8540;SDS011;4308;51.294;6.590;2024-03-06T12:03:23;33.73;;;21.70;;
8540;SDS011;4308;51.294;6.590;2024-03-06T12:05:51;29.87;;;21.93;;
8540;SDS011;4308;51.294;6.590;2024-03-06T12:08:19;26.83;;;19.60;;
8540;SDS011;4308;51.294;6.590;2024-03-06T12:10:46;30.87;;;20.17;;
8540;SDS011;4308;51.294;6.590;2024-03-06T12:13:14;30.77;;;19.67;;
8540;SDS011;4308;51.294;6.590;2024-03-06T12:15:44;30.70;;;21.10;;
8540;SDS011;4308;51.294;6.590;2024-03-06T12:18:11;33.87;;;21.97;;
8540;SDS011;4308;51.294;6.590;2024-03-06T12:20:42;34.03;;;23.57;;
8540;SDS011;4308;51.294;6.590;2024-03-06T12:23:09;33.87;;;23.03;;
8540;SDS011;4308;51.294;6.590;2024-03-06T12:25:37;34.27;;;24.13;;
8540;SDS011;4308;51.294;6.590;2024-03-06T12:28:08;35.30;;;24.77;;
8540;SDS011;4308;51.294;6.590;2024-03-06T12:30:42;38.10;;;25.40;;
8540;SDS011;4308;51.294;6.590;2024-03-06T12:33:10;34.53;;;24.40;;
8540;SDS011;4308;51.294;6.590;2024-03-06T12:35:37;35.70;;;24.73;;
8540;SDS011;4308;51.294;6.590;2024-03-06T12:38:15;33.43;;;21.87;;
8540;SDS011;4308;51.294;6.590;2024-03-06T12:40:44;31.90;;;21.73;;
8540;SDS011;4308;51.294;6.590;2024-03-06T12:43:11;32.43;;;22.73;;
8540;SDS011;4308;51.294;6.590;2024-03-06T12:45:39;31.07;;;22.63;;
8540;SDS011;4308;51.294;6.590;2024-03-06T12:48:06;28.77;;;19.73;;
8540;SDS011;4308;51.294;6.590;2024-03-06T12:50:34;29.40;;;20.23;;
8540;SDS011;4308;51.294;6.590;2024-03-06T12:53:01;30.33;;;22.40;;
8540;SDS011;4308;51.294;6.590;2024-03-06T12:55:29;29.20;;;21.57;;
8540;SDS011;4308;51.294;6.590;2024-03-06T12:57:56;26.83;;;18.17;;
8540;SDS011;4308;51.294;6.590;2024-03-06T13:00:23;28.47;;;21.13;;
8540;SDS011;4308;51.294;6.590;2024-03-06T13:02:51;30.57;;;20.53;;
8540;SDS011;4308;51.294;6.590;2024-03-06T13:05:18;25.97;;;19.90;;
8540;SDS011;4308;51.294;6.590;2024-03-06T13:07:46;26.80;;;19.93;;
8540;SDS011;4308;51.294;6.590;2024-03-06T13:10:14;27.30;;;18.03;;
8540;SDS011;4308;51.294;6.590;2024-03-06T13:12:41;23.30;;;18.33;;
8540;SDS011;4308;51.294;6.590;2024-03-06T13:15:09;27.63;;;20.23;;
8540;SDS011;4308;51.294;6.590;2024-03-06T13:17:36;26.00;;;19.27;;
8540;SDS011;4308;51.294;6.590;2024-03-06T13:20:04;25.47;;;18.67;;
8540;SDS011;4308;51.294;6.590;2024-03-06T13:22:32;27.80;;;19.73;;
8540;SDS011;4308;51.294;6.590;2024-03-06T13:25:00;24.23;;;17.93;;
8540;SDS011;4308;51.294;6.590;2024-03-06T13:27:27;26.23;;;20.47;;
8540;SDS011;4308;51.294;6.590;2024-03-06T13:29:55;28.10;;;19.07;;
8540;SDS011;4308;51.294;6.590;2024-03-06T13:32:22;28.90;;;19.07;;
8540;SDS011;4308;51.294;6.590;2024-03-06T13:34:50;24.20;;;17.47;;
8540;SDS011;4308;51.294;6.590;2024-03-06T13:37:17;25.00;;;18.43;;
8540;SDS011;4308;51.294;6.590;2024-03-06T13:39:45;25.07;;;17.80;;
8540;SDS011;4308;51.294;6.590;2024-03-06T13:42:12;21.60;;;15.93;;
8540;SDS011;4308;51.294;6.590;2024-03-06T13:44:40;21.03;;;14.60;;
8540;SDS011;4308;51.294;6.590;2024-03-06T13:47:07;22.30;;;15.27;;
8540;SDS011;4308;51.294;6.590;2024-03-06T13:49:41;23.03;;;15.83;;
8540;SDS011;4308;51.294;6.590;2024-03-06T13:52:09;19.83;;;14.43;;
8540;SDS011;4308;51.294;6.590;2024-03-06T13:54:38;22.93;;;15.80;;
8540;SDS011;4308;51.294;6.590;2024-03-06T13:57:09;20.03;;;12.47;;
8540;SDS011;4308;51.294;6.590;2024-03-06T13:59:36;19.47;;;14.93;;
8540;SDS011;4308;51.294;6.590;2024-03-06T14:02:05;17.43;;;13.23;;
8540;SDS011;4308;51.294;6.590;2024-03-06T14:04:33;20.77;;;14.87;;
8540;SDS011;4308;51.294;6.590;2024-03-06T14:07:01;19.07;;;14.37;;
8540;SDS011;4308;51.294;6.590;2024-03-06T14:09:28;19.43;;;15.20;;
8540;SDS011;4308;51.294;6.590;2024-03-06T14:11:56;23.90;;;15.23;;
8540;SDS011;4308;51.294;6.590;2024-03-06T14:14:24;19.83;;;15.27;;
8540;SDS011;4308;51.294;6.590;2024-03-06T14:16:51;20.37;;;15.10;;
8540;SDS011;4308;51.294;6.590;2024-03-06T14:19:18;17.50;;;13.77;;
8540;SDS011;4308;51.294;6.590;2024-03-06T14:21:46;18.53;;;13.90;;
8540;SDS011;4308;51.294;6.590;2024-03-06T14:24:13;19.80;;;14.13;;
8540;SDS011;4308;51.294;6.590;2024-03-06T14:26:41;22.10;;;15.57;;
8540;SDS011;4308;51.294;6.590;2024-03-06T14:29:08;19.03;;;14.63;;
8540;SDS011;4308;51.294;6.590;2024-03-06T14:31:36;22.63;;;14.90;;
8540;SDS011;4308;51.294;6.590;2024-03-06T14:34:03;19.77;;;14.70;;
8540;SDS011;4308;51.294;6.590;2024-03-06T14:36:32;20.43;;;15.93;;
8540;SDS011;4308;51.294;6.590;2024-03-06T14:39:00;19.47;;;14.97;;
8540;SDS011;4308;51.294;6.590;2024-03-06T14:41:27;18.50;;;15.00;;
8540;SDS011;4308;51.294;6.590;2024-03-06T14:43:55;20.40;;;14.93;;
8540;SDS011;4308;51.294;6.590;2024-03-06T14:46:30;18.60;;;15.07;;
8540;SDS011;4308;51.294;6.590;2024-03-06T14:49:04;20.70;;;14.83;;
8540;SDS011;4308;51.294;6.590;2024-03-06T14:51:34;19.00;;;14.30;;
8540;SDS011;4308;51.294;6.590;2024-03-06T14:54:02;17.77;;;13.83;;
8540;SDS011;4308;51.294;6.590;2024-03-06T14:56:29;18.87;;;13.90;;
8540;SDS011;4308;51.294;6.590;2024-03-06T14:58:57;20.33;;;14.40;;
8540;SDS011;4308;51.294;6.590;2024-03-06T15:01:25;15.23;;;11.70;;
8540;SDS011;4308;51.294;6.590;2024-03-06T15:03:55;18.03;;;7.57;;
8540;SDS011;4308;51.294;6.590;2024-03-06T15:06:25;17.23;;;12.47;;
8540;SDS011;4308;51.294;6.590;2024-03-06T15:08:52;14.77;;;11.07;;